Time;durP1;ratioP1;P1;durP2;ratioP2;P2;SDS_P1;SDS_P2;PMS_P1;PMS_P2;Temp;Humidity;BMP_temperature;BMP_pressure;BME280_temperature;BME280_humidity;BME280_pressure;Samples;Min_cycle;Max_cycle;Signal;HPM_P1;HPM_P2
2023/03/10 00:02:33;;;;;;;;;;;;;;;-3.35;71.13;96850.63;6322759;28;20052;-67
2023/03/10 00:05:36;;;;;;;12.00;6.13;;;;;;;-3.43;71.55;96867.84;6322589;28;19916;-66
2023/03/10 00:08:40;;;;;;;12.70;6.73;;;;;;;-3.27;70.92;96866.81;6321691;28;20044;-67
2023/03/10 00:11:46;;;;;;;15.23;7.88;;;;;;;-3.52;71.61;96888.50;6322507;28;21003;-67
2023/03/10 00:14:53;;;;;;;16.98;7.80;;;;;;;-3.50;72.20;96861.06;6322417;28;20040;-67
2023/03/10 00:17:54;;;;;;;;;;;;;;;-3.44;71.86;96871.28;6322582;28;20043;-67
2023/03/10 00:21:01;;;;;;;12.30;6.00;;;;;;;-3.57;72.11;96849.13;6322044;28;19927;-67
2023/03/10 00:24:02;;;;;;;;;;;;;;;-3.53;72.26;96867.09;6320682;28;20040;-67
2023/03/10 00:27:04;;;;;;;18.20;8.55;;;;;;;-3.61;72.12;96841.44;6322116;28;20324;-67
2023/03/10 00:30:06;;;;;;;13.52;7.18;;;;;;;-3.64;72.40;96854.31;6322025;28;20040;-66
2023/03/10 00:33:08;;;;;;;14.52;7.75;;;;;;;-3.70;72.72;96849.25;6321096;28;20055;-66
2023/03/10 00:36:20;;;;;;;12.52;6.03;;;;;;;-3.65;73.24;96847.50;6320323;28;20051;-68
2023/03/10 00:39:25;;;;;;;;;;;;;;;-3.54;72.73;96854.22;6322381;28;20044;-67
2023/03/10 00:42:28;;;;;;;17.38;6.90;;;;;;;-3.52;72.90;96842.22;6320602;28;19920;-67
2023/03/10 00:45:34;;;;;;;;;;;;;;;-3.65;72.80;96854.34;6322104;28;20050;-67
2023/03/10 00:48:40;;;;;;;12.13;5.60;;;;;;;-3.69;73.14;96861.22;6321847;28;19927;-68
2023/03/10 00:51:52;;;;;;;10.07;5.38;;;;;;;-3.64;72.74;96863.78;6321604;28;20165;-67
2023/03/10 00:54:57;;;;;;;17.92;8.73;;;;;;;-3.69;72.99;96870.66;6321054;28;20432;-67
2023/03/10 00:58:01;;;;;;;11.27;6.82;;;;;;;-3.68;72.57;96868.09;6321253;28;20054;-68
2023/03/10 01:01:09;;;;;;;;;;;;;;;-3.68;72.29;96862.94;6321780;28;20089;-67
2023/03/10 01:04:17;;;;;;;17.85;9.30;;;;;;;-3.81;72.81;96860.50;6321185;28;20072;-68
2023/03/10 01:07:22;;;;;;;17.10;8.80;;;;;;;-3.91;73.17;96862.28;6321225;28;20493;-67
2023/03/10 01:10:24;;;;;;;8.77;5.80;;;;;;;-3.73;72.71;96849.28;6320475;28;20129;-67
2023/03/10 01:13:25;;;;;;;11.73;5.70;;;;;;;-3.70;72.97;96864.69;6320531;28;20056;-67
2023/03/10 01:16:29;;;;;;;10.70;5.22;;;;;;;-3.74;72.82;96875.00;6320787;28;20043;-67
2023/03/10 01:19:33;;;;;;;13.23;6.35;;;;;;;-3.86;72.95;96871.66;6320773;28;20039;-67
2023/03/10 01:22:37;;;;;;;11.05;6.82;;;;;;;-3.83;72.92;96868.22;6320671;28;20047;-68
2023/03/10 01:25:43;;;;;;;16.00;8.43;;;;;;;-4.01;73.13;96870.94;6320795;28;20039;-67
2023/03/10 01:28:46;;;;;;;14.23;7.10;;;;;;;-4.02;72.88;96874.34;6320342;28;20051;-67
2023/03/10 01:31:47;;;;;;;15.32;7.55;;;;;;;-4.21;73.63;96871.94;6320534;28;20040;-66
2023/03/10 01:34:48;;;;;;;12.90;7.05;;;;;;;-4.11;72.79;96873.56;6320338;28;20047;-66
2023/03/10 01:37:52;;;;;;;18.55;9.20;;;;;;;-4.30;73.00;96877.16;6320420;28;20093;-67
2023/03/10 01:40:55;;;;;;;16.10;8.10;;;;;;;-4.43;73.78;96876.34;6320413;28;20036;-66
2023/03/10 01:44:02;;;;;;;19.85;8.93;;;;;;;-4.43;73.31;96888.34;6319452;28;20066;-67
2023/03/10 01:47:06;;;;;;;15.38;6.80;;;;;;;-4.28;73.02;96893.38;6320407;28;20036;-67
2023/03/10 01:50:15;;;;;;;13.70;7.50;;;;;;;-4.46;73.59;96902.06;6319724;28;20058;-66
2023/03/10 01:53:20;;;;;;;13.05;6.40;;;;;;;-4.54;73.80;96906.38;6319652;28;20056;-67
2023/03/10 01:56:24;;;;;;;15.77;7.40;;;;;;;-4.36;73.26;96892.56;6319727;28;20413;-67
2023/03/10 01:59:31;;;;;;;12.93;7.20;;;;;;;-4.39;73.45;96882.31;6320005;28;20461;-68
2023/03/10 02:02:36;;;;;;;11.15;5.72;;;;;;;-4.42;74.15;96887.47;6319779;28;20131;-68
2023/03/10 02:05:45;;;;;;;12.20;6.97;;;;;;;-4.49;73.97;96880.69;6319925;28;20433;-66
2023/03/10 02:08:55;;;;;;;12.55;6.93;;;;;;;-4.56;73.64;96870.44;6318431;28;20044;-67
2023/03/10 02:11:59;;;;;;;15.82;7.75;;;;;;;-4.72;74.14;96879.09;6319553;28;20120;-68
2023/03/10 02:15:03;;;;;;;12.05;6.47;;;;;;;-4.71;74.38;96878.22;6319260;28;20430;-67
2023/03/10 02:18:09;;;;;;;9.43;5.38;;;;;;;-4.54;74.42;96883.25;6319088;28;20132;-67
2023/03/10 02:21:39;;;;;;;11.95;6.00;;;;;;;-4.32;73.18;96868.59;6319430;28;20055;-66
2023/03/10 02:24:58;;;;;;;16.05;8.65;;;;;;;-4.48;73.25;96866.97;6318943;28;20047;-66
2023/03/10 02:28:03;;;;;;;9.35;5.88;;;;;;;-4.53;73.43;96875.56;6319365;28;20047;-67
2023/03/10 02:31:09;;;;;;;17.42;9.63;;;;;;;-4.57;73.36;96883.28;6319194;28;20585;-67
2023/03/10 02:34:13;;;;;;;5.68;3.55;;;;;;;-4.64;73.67;96872.19;6318678;28;20063;-67
2023/03/10 02:37:30;;;;;;;13.40;6.68;;;;;;;-4.62;74.07;96879.88;6319019;28;20409;-66
2023/03/10 02:40:42;;;;;;;8.82;4.82;;;;;;;-4.47;73.68;96873.78;6318239;28;20216;-67
2023/03/10 02:43:45;;;;;;;18.50;9.27;;;;;;;-4.41;73.48;96873.78;6318664;28;20036;-67
2023/03/10 02:46:49;;;;;;;11.20;6.53;;;;;;;-4.32;73.78;96868.59;6318583;28;20046;-68
2023/03/10 02:49:58;;;;;;;12.48;6.43;;;;;;;-4.34;73.77;96860.03;6319157;28;20374;-67
2023/03/10 02:53:22;;;;;;;12.00;7.35;;;;;;;-4.11;73.49;96863.28;6318212;28;20048;-67
2023/03/10 02:56:25;;;;;;;15.05;8.52;;;;;;;-4.15;73.11;96859.03;6318434;28;20109;-68
2023/03/10 02:59:31;;;;;;;14.88;8.27;;;;;;;-4.26;73.98;96839.44;6323765;28;20489;-67
2023/03/10 03:02:32;;;;;;;14.32;6.68;;;;;;;-4.13;73.46;96839.34;6323698;28;20051;-67
2023/03/10 03:05:36;;;;;;;16.27;8.82;;;;;;;-4.00;74.09;96852.06;6324053;28;20498;-67
2023/03/10 03:08:41;;;;;;;15.35;7.63;;;;;;;-3.87;73.09;96856.25;6322405;28;20485;-68
2023/03/10 03:11:45;;;;;;;13.73;7.65;;;;;;;-3.69;72.02;96856.09;6323314;28;20052;-68
2023/03/10 03:14:47;;;;;;;17.58;6.15;;;;;;;-3.52;71.58;96837.91;6323311;28;20047;-68
2023/03/10 03:17:49;;;;;;;18.33;8.18;;;;;;;-3.79;72.74;96828.78;6322295;28;20409;-67
2023/03/10 03:20:52;;;;;;;10.90;5.10;;;;;;;-3.57;72.36;96844.81;6323346;28;20032;-67
2023/03/10 03:23:54;;;;;;;9.52;5.22;;;;;;;-3.58;72.41;96835.41;6323633;28;20097;-66
2023/03/10 03:26:57;;;;;;;12.13;6.35;;;;;;;-3.52;71.54;96842.22;6323363;28;20213;-68
2023/03/10 03:29:59;;;;;;;14.52;7.47;;;;;;;-3.56;72.04;96850.84;6323310;28;20052;-67
2023/03/10 03:33:05;;;;;;;19.40;6.97;;;;;;;-3.53;71.87;96843.09;6322817;28;20051;-68
2023/03/10 03:36:09;;;;;;;15.20;7.43;;;;;;;-3.69;72.74;96830.38;6323442;28;20040;-67
2023/03/10 03:39:12;;;;;;;;;;;;;;;-3.41;72.44;96840.38;6322188;28;20048;-67
2023/03/10 03:42:13;;;;;;;16.73;8.85;;;;;;;-3.48;72.14;96843.88;6323001;28;20301;-67
2023/03/10 03:45:22;;;;;;;14.15;5.40;;;;;;;-3.47;72.08;96850.75;6323184;28;20051;-67
2023/03/10 03:48:26;;;;;;;16.73;6.38;;;;;;;-3.44;72.05;96845.56;6322898;28;20043;-68
2023/03/10 03:51:31;;;;;;;14.07;7.05;;;;;;;-3.49;71.47;96834.47;6322722;28;20087;-67
2023/03/10 03:54:36;;;;;;;15.10;7.85;;;;;;;-3.71;71.94;96832.13;6321235;28;20052;-67
2023/03/10 03:57:43;;;;;;;;;;;;;;;-3.44;71.56;96823.25;6320118;28;20044;-67
2023/03/10 04:00:48;;;;;;;17.77;7.00;;;;;;;-3.59;70.70;96825.13;6321072;28;20084;-68
2023/03/10 04:03:53;;;;;;;17.48;8.77;;;;;;;-3.70;70.94;96823.53;6321185;28;20050;-67
2023/03/10 04:06:56;;;;;;;;;;;;;;;-3.64;71.20;96832.91;6320999;28;20051;-67
2023/03/10 04:10:00;;;;;;;12.50;6.97;;;;;;;-3.54;70.86;96825.94;6320597;28;19930;-68
2023/03/10 04:13:05;;;;;;;16.13;8.23;;;;;;;-3.72;71.48;96825.25;6321186;28;20066;-66
2023/03/10 04:16:11;;;;;;;12.02;6.88;;;;;;;-3.65;71.48;96841.50;6320744;28;20050;-68
2023/03/10 04:19:15;;;;;;;15.38;7.97;;;;;;;-3.49;69.99;96839.63;6320660;28;20051;-67
2023/03/10 04:22:18;;;;;;;;;;;;;;;-3.42;69.27;96839.53;6320950;28;20139;-67
2023/03/10 04:25:24;;;;;;;12.90;6.68;;;;;;;-3.58;69.39;96843.13;6320820;28;20393;-67
2023/03/10 04:28:28;;;;;;;13.73;5.88;;;;;;;-3.56;69.14;96825.13;6302789;28;20082;-67
2023/03/10 04:31:33;;;;;;;15.10;6.75;;;;;;;-3.62;69.54;96826.03;6320676;28;20550;-68
2023/03/10 04:34:38;;;;;;;9.45;5.47;;;;;;;-3.51;69.63;96813.94;6320366;28;20046;-67
2023/03/10 04:37:43;;;;;;;12.57;5.63;;;;;;;-3.50;69.83;96814.78;6320501;28;20040;-67
2023/03/10 04:40:57;;;;;;;15.45;7.00;;;;;;;-3.26;69.69;96832.50;6320447;28;20047;-67
2023/03/10 04:44:02;;;;;;;10.98;6.50;;;;;;;-3.09;68.84;96834.88;6320174;28;20047;-68
2023/03/10 04:47:07;;;;;;;12.23;7.38;;;;;;;-3.18;68.93;96820.41;6320264;28;20047;-67
2023/03/10 04:50:16;;;;;;;18.25;8.00;;;;;;;-2.91;68.37;96825.25;6320348;28;20114;-66
2023/03/10 04:53:20;;;;;;;16.40;8.05;;;;;;;-2.85;68.93;96815.72;6253667;28;1898948;-67
2023/03/10 04:56:25;;;;;;;15.63;8.38;;;;;;;-2.73;68.86;96831.00;6321295;28;20051;-67
2023/03/10 04:59:30;;;;;;;16.55;8.23;;;;;;;-2.61;67.85;96829.97;6321383;28;20074;-68
2023/03/10 05:02:36;;;;;;;15.75;7.95;;;;;;;-2.46;67.25;96828.94;6321533;28;20046;-68
2023/03/10 05:05:41;;;;;;;15.45;8.27;;;;;;;-2.31;67.00;96831.28;6319628;28;20044;-67
2023/03/10 05:08:47;;;;;;;17.50;8.27;;;;;;;-1.98;65.30;96833.34;6321042;28;20046;-68
2023/03/10 05:11:51;;;;;;;11.27;6.10;;;;;;;-1.96;65.46;96824.72;6319825;28;20484;-67
2023/03/10 05:14:54;;;;;;;;;;;;;;;-1.78;64.78;96817.53;6321297;28;20570;-67
2023/03/10 05:17:59;;;;;;;15.15;7.38;;;;;;;-1.89;64.79;96816.00;6320923;28;20491;-69
2023/03/10 05:21:02;;;;;;;12.70;6.93;;;;;;;-1.72;65.00;96823.47;6320340;28;20051;-68
2023/03/10 05:24:05;;;;;;;15.35;8.02;;;;;;;-1.70;64.23;96815.69;6320578;28;20047;-67
2023/03/10 05:27:10;;;;;;;16.08;8.27;;;;;;;-1.47;63.25;96813.56;6320870;28;20064;-70
2023/03/10 05:30:16;;;;;;;16.75;7.18;;;;;;;-1.56;62.98;96808.53;6320627;28;20044;-67
2023/03/10 05:33:21;;;;;;;11.00;6.00;;;;;;;-1.56;62.67;96805.97;6320241;28;21032;-69
2023/03/10 05:36:26;;;;;;;9.48;5.90;;;;;;;-1.67;64.02;96810.47;6320019;28;20051;-68
2023/03/10 05:39:29;;;;;;;11.13;5.82;;;;;;;-1.50;63.08;96808.47;6320351;28;20042;-67
2023/03/10 05:42:34;;;;;;;15.25;7.72;;;;;;;-1.54;62.88;96800.78;6318896;28;20044;-67
2023/03/10 05:45:39;;;;;;;18.60;8.02;;;;;;;-1.42;63.99;96806.56;6320157;28;20409;-67
2023/03/10 05:48:42;;;;;;;;;;;;;;;0.18;62.73;96803.09;6320612;28;20039;-67
2023/03/10 05:51:48;;;;;;;12.40;6.60;;;;;;;4.66;54.00;96814.06;6320098;28;20041;-67
2023/03/10 05:54:53;;;;;;;9.27;5.32;;;;;;;7.73;42.81;96804.47;6319750;28;20058;-67
2023/03/10 05:57:58;;;;;;;10.65;5.97;;;;;;;9.94;39.31;96802.03;6320166;28;20050;-67
2023/03/10 06:01:04;;;;;;;7.95;5.57;;;;;;;11.40;34.85;96801.94;6320350;28;20413;-66
2023/03/10 06:04:09;;;;;;;7.72;4.68;;;;;;;13.14;34.15;96807.88;6319751;28;20043;-68
2023/03/10 06:07:12;;;;;;;;;;;;;;;14.26;31.05;96781.41;6320219;28;20429;-67
2023/03/10 06:10:16;;;;;;;6.68;4.53;;;;;;;14.14;29.83;96793.00;6319740;28;20015;-68
2023/03/10 06:13:20;;;;;;;8.02;5.75;;;;;;;14.71;27.46;96775.16;6318481;28;20514;-68
2023/03/10 06:16:24;;;;;;;7.28;5.07;;;;;;;15.32;26.87;96774.44;6319579;28;20047;-68
2023/03/10 06:19:29;;;;;;;8.15;5.07;;;;;;;14.80;26.55;96763.78;6319520;28;20044;-67
2023/03/10 06:22:32;;;;;;;7.15;4.70;;;;;;;15.09;26.18;96760.47;6319569;28;20424;-68
2023/03/10 06:25:36;;;;;;;6.45;4.88;;;;;;;15.32;26.62;96769.97;6319760;28;20130;-67
2023/03/10 06:28:42;;;;;;;5.25;3.13;;;;;;;17.20;25.26;96764.75;6319503;28;20044;-67
2023/03/10 06:31:47;;;;;;;7.38;4.68;;;;;;;17.66;24.71;96768.38;6319276;28;20501;-68
2023/03/10 06:34:51;;;;;;;6.40;4.60;;;;;;;17.71;24.15;96763.47;6317792;28;20047;-68
2023/03/10 06:37:56;;;;;;;7.28;4.53;;;;;;;17.45;24.78;96769.44;6319164;28;20047;-68
2023/03/10 06:41:01;;;;;;;9.45;4.97;;;;;;;16.85;23.95;96760.91;6319205;28;20043;-67
2023/03/10 06:44:05;;;;;;;8.40;4.97;;;;;;;15.66;25.43;96754.66;6319363;28;20073;-68
2023/03/10 06:47:09;;;;;;;8.80;5.68;;;;;;;16.11;24.69;96756.91;6317833;28;20044;-68
2023/03/10 06:50:13;;;;;;;7.82;5.80;;;;;;;16.39;24.93;96754.44;6319189;28;20044;-69
2023/03/10 06:53:20;;;;;;;7.35;4.47;;;;;;;17.49;23.52;96762.88;6318821;28;20058;-69
2023/03/10 06:56:24;;;;;;;7.82;5.45;;;;;;;19.37;22.14;96757.81;6317936;28;20054;-67
2023/03/10 06:59:29;;;;;;;7.53;4.88;;;;;;;20.10;20.82;96766.22;6318906;28;20051;-67
2023/03/10 07:02:34;;;;;;;6.20;4.88;;;;;;;20.68;20.23;96758.38;6318657;28;20413;-68
2023/03/10 07:05:38;;;;;;;10.73;5.05;;;;;;;20.83;20.00;96756.69;6318898;28;20047;-68
2023/03/10 07:08:44;;;;;;;7.70;4.43;;;;;;;21.56;19.41;96755.00;6319186;28;20066;-68
2023/03/10 07:11:51;;;;;;;5.78;4.40;;;;;;;22.20;19.08;96742.41;6318762;28;20559;-68
2023/03/10 07:14:56;;;;;;;6.85;4.80;;;;;;;21.96;19.39;96743.31;6318748;28;20408;-68
2023/03/10 07:18:01;;;;;;;5.95;4.40;;;;;;;21.96;18.34;96722.69;6318648;28;20047;-68
2023/03/10 07:21:13;;;;;;;6.05;4.40;;;;;;;21.24;19.46;96727.25;6318846;28;20048;-68
2023/03/10 07:24:18;;;;;;;5.22;3.90;;;;;;;22.19;19.13;96719.28;6318876;28;20413;-68
2023/03/10 07:27:23;;;;;;;6.15;4.60;;;;;;;22.34;17.92;96714.03;6318954;28;20046;-68
2023/03/10 07:30:28;;;;;;;8.90;4.78;;;;;;;21.61;18.64;96723.19;6318595;28;20417;-68
2023/03/10 07:33:33;;;;;;;7.47;4.25;;;;;;;22.24;18.37;96714.22;6318576;28;20055;-68
2023/03/10 07:36:37;;;;;;;5.22;3.97;;;;;;;23.80;17.58;96724.50;6318250;28;20043;-68
2023/03/10 07:39:42;;;;;;;7.80;4.28;;;;;;;24.42;16.48;96725.88;6317281;28;20047;-68
2023/03/10 07:42:47;;;;;;;8.68;4.50;;;;;;;23.89;16.81;96719.84;6319397;28;20040;-69
2023/03/10 07:45:51;;;;;;;6.93;4.38;;;;;;;23.61;16.94;96716.97;6323204;28;20424;-68
2023/03/10 07:48:58;;;;;;;6.63;4.32;;;;;;;21.76;18.19;96721.47;6321853;28;20051;-68
2023/03/10 07:52:03;;;;;;;7.28;4.57;;;;;;;21.16;18.91;96703.19;6322985;28;20576;-68
2023/03/10 07:55:06;;;;;;;6.63;4.68;;;;;;;21.45;19.05;96698.13;6321309;28;20079;-67
2023/03/10 07:58:09;;;;;;;6.47;4.57;;;;;;;21.90;17.97;96696.63;6322833;28;20044;-67
2023/03/10 08:01:19;;;;;;;7.57;4.05;;;;;;;21.60;18.69;96692.06;6322670;28;20047;-69
2023/03/10 08:04:24;;;;;;;7.30;3.80;;;;;;;22.72;17.96;96687.25;6322808;28;20038;-68
2023/03/10 08:07:30;;;;;;;6.10;4.03;;;;;;;24.02;16.76;96698.53;6322724;28;20070;-67
2023/03/10 08:10:35;;;;;;;7.30;4.45;;;;;;;23.74;16.78;96696.53;6322815;28;20054;-68
2023/03/10 08:13:40;;;;;;;8.32;4.80;;;;;;;22.67;17.32;96692.31;6322529;28;20044;-66
2023/03/10 08:16:47;;;;;;;8.23;4.70;;;;;;;21.58;18.23;96672.69;6322381;28;20490;-67
2023/03/10 08:19:50;;;;;;;5.70;4.22;;;;;;;21.79;18.24;96678.25;6322288;28;20070;-68
2023/03/10 08:22:55;;;;;;;6.00;4.53;;;;;;;21.72;18.12;96674.63;6322314;28;20460;-67
2023/03/10 08:26:06;;;;;;;7.75;5.13;;;;;;;21.32;18.63;96672.91;6321883;28;20050;-68
2023/03/10 08:29:11;;;;;;;6.85;4.70;;;;;;;21.80;17.97;96663.88;6321817;28;20051;-68
2023/03/10 08:32:16;;;;;;;6.82;4.80;;;;;;;22.23;17.76;96656.28;6322014;28;20051;-68
2023/03/10 08:35:20;;;;;;;7.65;5.30;;;;;;;21.63;17.91;96652.41;6320941;28;20040;-67
2023/03/10 08:38:25;;;;;;;8.02;4.22;;;;;;;22.39;17.66;96648.13;6321987;28;20044;-68
2023/03/10 08:41:35;;;;;;;6.93;4.82;;;;;;;20.05;19.29;96642.19;6321830;28;20047;-68
2023/03/10 08:44:40;;;;;;;7.55;5.07;;;;;;;19.92;19.54;96634.63;6321761;28;20127;-67
2023/03/10 08:47:45;;;;;;;6.90;5.30;;;;;;;19.26;20.47;96631.69;6321510;28;20428;-67
2023/03/10 08:50:49;;;;;;;6.35;4.75;;;;;;;19.02;20.74;96618.22;6320261;28;20501;-68
2023/03/10 08:53:54;;;;;;;9.57;5.80;;;;;;;19.15;20.21;96615.97;6318934;28;20047;-68
2023/03/10 08:56:59;;;;;;;15.35;5.43;;;;;;;19.25;20.57;96614.03;6321045;28;20420;-68
2023/03/10 09:00:05;;;;;;;11.18;6.00;;;;;;;19.58;20.47;96611.47;6321285;28;20046;-69
2023/03/10 09:03:10;;;;;;;9.63;5.28;;;;;;;20.42;19.40;96609.63;6321042;28;20036;-68
2023/03/10 09:06:15;;;;;;;6.68;4.80;;;;;;;20.83;19.00;96609.63;6321746;28;20347;-68
2023/03/10 09:09:19;;;;;;;10.52;5.05;;;;;;;19.77;19.64;96604.22;6321622;28;20413;-68
2023/03/10 09:12:23;;;;;;;7.63;4.90;;;;;;;18.42;20.91;96599.50;6320860;28;20159;-67
2023/03/10 09:15:27;;;;;;;8.38;5.47;;;;;;;17.77;21.26;96591.72;6320613;28;20047;-69
2023/03/10 09:18:31;;;;;;;7.13;5.38;;;;;;;17.87;21.38;96588.03;6302323;28;20052;-68
2023/03/10 09:21:36;;;;;;;7.68;5.03;;;;;;;17.03;22.09;96586.41;6320778;28;20040;-68
2023/03/10 09:24:40;;;;;;;7.90;4.97;;;;;;;17.02;22.25;96574.09;6320260;28;20044;-68
2023/03/10 09:27:45;;;;;;;7.70;5.20;;;;;;;16.83;22.26;96576.84;6318836;28;20052;-68
2023/03/10 09:30:53;;;;;;;4.53;3.80;;;;;;;16.72;22.38;96574.31;6318921;28;20536;-68
2023/03/10 09:33:58;;;;;;;6.10;4.25;;;;;;;17.00;22.23;96573.41;6319949;28;20409;-69
2023/03/10 09:37:03;;;;;;;11.75;5.45;;;;;;;16.04;22.93;96569.97;6320263;28;20046;-68
2023/03/10 09:40:09;;;;;;;7.38;5.20;;;;;;;14.60;25.22;96566.84;6320276;28;20422;-68
2023/03/10 09:43:22;;;;;;;7.97;5.40;;;;;;;15.09;24.55;96562.59;6320053;28;20035;-69
2023/03/10 09:46:42;;;;;;;7.30;5.37;;;;;;;15.71;23.74;96553.53;6319722;28;20422;-67
2023/03/10 09:50:19;;;;;;;8.05;4.97;;;;;;;15.79;23.38;96557.28;6319809;28;20493;-68
2023/03/10 09:53:52;;;;;;;8.35;4.88;;;;;;;15.67;23.39;96552.06;6319834;28;20055;-68
2023/03/10 09:56:58;;;;;;;7.32;4.90;;;;;;;14.57;24.25;96551.22;6318669;28;20447;-69
2023/03/10 10:00:08;;;;;;;6.30;4.28;;;;;;;14.43;24.70;96538.31;6319810;28;20044;-69
2023/03/10 10:03:17;;;;;;;8.25;4.05;;;;;;;13.78;25.52;96554.31;6318739;28;20044;-70
2023/03/10 10:06:29;;;;;;;6.15;3.63;;;;;;;12.58;27.60;96537.50;6301401;28;20052;-68
2023/03/10 10:10:08;;;;;;;5.20;3.72;;;;;;;13.36;26.37;96537.53;6319383;28;20039;-67
2023/03/10 10:13:17;;;;;;;6.32;4.40;;;;;;;13.69;25.81;96533.91;6319618;28;20046;-69
2023/03/10 10:16:33;;;;;;;5.43;4.18;;;;;;;13.72;25.80;96523.09;6319320;28;20050;-68
2023/03/10 10:19:39;;;;;;;4.47;3.47;;;;;;;14.68;24.89;96527.31;6319531;28;20044;-69
2023/03/10 10:22:44;;;;;;;3.78;3.13;;;;;;;15.34;24.13;96531.25;6318022;28;20043;-68
2023/03/10 10:25:48;;;;;;;4.35;3.58;;;;;;;15.05;24.26;96529.38;6318362;28;20044;-68
2023/03/10 10:29:05;;;;;;;3.45;3.15;;;;;;;15.27;24.13;96533.63;6318219;28;20490;-68
2023/03/10 10:32:13;;;;;;;3.08;2.17;;;;;;;15.53;24.12;96528.63;6318150;28;20051;-69
2023/03/10 10:35:24;;;;;;;5.35;3.10;;;;;;;14.12;25.21;96525.03;6300541;28;20467;-68
2023/03/10 10:38:31;;;;;;;3.38;3.03;;;;;;;13.03;26.68;96508.41;6319109;28;20042;-69
2023/03/10 10:41:35;;;;;;;3.45;2.90;;;;;;;11.71;28.62;96511.69;6319163;28;20520;-68
2023/03/10 10:44:42;;;;;;;;;;;;;;;11.52;29.04;96520.97;6318271;28;20044;-69
2023/03/10 10:47:49;;;;;;;5.25;2.65;;;;;;;11.30;29.40;96510.34;6318927;28;19916;-68
2023/03/10 10:50:54;;;;;;;5.68;3.42;;;;;;;11.07;29.88;96510.22;6318992;28;20036;-68
2023/03/10 10:54:03;;;;;;;5.78;3.67;;;;;;;11.66;29.05;96512.88;6318800;28;20434;-69
2023/03/10 10:57:37;;;;;;;3.50;2.85;;;;;;;11.61;29.09;96512.38;6319184;28;20048;-68
2023/03/10 11:00:41;;;;;;;6.28;3.42;;;;;;;10.64;30.66;96508.00;6318318;28;20069;-68
2023/03/10 11:03:46;;;;;;;;;;;;;;;10.87;30.35;96495.00;6319196;28;20047;-68
2023/03/10 11:06:52;;;;;;;4.85;3.70;;;;;;;10.87;30.19;96501.13;6319045;28;20029;-68
2023/03/10 11:09:58;;;;;;;3.83;2.70;;;;;;;10.87;30.14;96497.63;6318935;28;20397;-69
2023/03/10 11:13:24;;;;;;;4.68;3.45;;;;;;;10.23;31.28;96501.22;6317842;28;20097;-69
2023/03/10 11:16:30;;;;;;;4.18;3.25;;;;;;;11.02;30.31;96512.34;6318618;28;20036;-69
2023/03/10 11:20:07;;;;;;;4.47;3.33;;;;;;;11.20;29.99;96499.63;6322749;28;20051;-69
2023/03/10 11:23:38;;;;;;;3.20;2.90;;;;;;;11.63;29.38;96502.56;6323550;28;20097;-68
2023/03/10 11:26:58;;;;;;;5.07;3.10;;;;;;;11.75;29.23;96499.94;6323344;28;20040;-69
2023/03/10 11:30:25;;;;;;;4.15;3.03;;;;;;;11.58;29.35;96488.88;6323626;28;20524;-69
2023/03/10 11:34:11;;;;;;;5.65;2.72;;;;;;;11.15;30.13;96486.81;6323262;28;20051;-69
2023/03/10 11:37:43;;;;;;;4.05;3.42;;;;;;;10.53;30.92;96484.25;6282195;28;20055;-69
2023/03/10 11:41:02;;;;;;;7.15;3.28;;;;;;;9.83;31.88;96477.69;6323327;28;20036;-68
2023/03/10 11:44:12;;;;;;;4.25;3.60;;;;;;;9.81;32.07;96466.41;6323143;28;20036;-69
2023/03/10 11:47:38;;;;;;;4.20;3.25;;;;;;;10.03;31.78;96465.78;6321665;28;20040;-68
2023/03/10 11:50:59;;;;;;;3.53;3.20;;;;;;;9.62;32.17;96471.25;6322716;28;20043;-68
2023/03/10 11:54:41;;;;;;;4.38;3.55;;;;;;;9.30;32.79;96466.34;6322323;28;20147;-70
2023/03/10 11:57:52;;;;;;;4.95;3.63;;;;;;;8.69;33.83;96463.34;6318523;28;20047;-69
2023/03/10 12:00:57;;;;;;;5.57;4.00;;;;;;;8.33;34.50;96453.34;6321696;28;20090;-68
2023/03/10 12:04:29;;;;;;;5.18;3.63;;;;;;;8.47;34.60;96448.09;6320831;28;20148;-67
2023/03/10 12:07:48;;;;;;;5.93;3.70;;;;;;;9.07;34.09;96456.53;6322537;28;20404;-69
2023/03/10 12:10:55;;;;;;;5.15;3.83;;;;;;;9.13;33.59;96448.25;6322638;28;20036;-68
2023/03/10 12:14:02;;;;;;;6.28;3.88;;;;;;;8.58;34.55;96436.94;6322231;28;20043;-68
2023/03/10 12:17:10;;;;;;;5.18;3.72;;;;;;;8.30;34.82;96443.06;6321782;28;20054;-68
2023/03/10 12:20:16;;;;;;;4.97;3.63;;;;;;;8.07;35.37;96440.09;6320804;28;20039;-68
2023/03/10 12:23:29;;;;;;;7.05;4.47;;;;;;;7.33;36.54;96445.44;6322143;28;20185;-67
2023/03/10 12:26:43;;;;;;;5.43;4.03;;;;;;;7.35;36.84;96438.34;6321869;28;20046;-68
2023/03/10 12:29:48;;;;;;;6.05;4.05;;;;;;;7.04;36.77;96445.34;6321748;28;20631;-69
2023/03/10 12:32:50;;;;;;;;;;;;;;;6.71;37.55;96442.91;6322232;28;20047;-68
2023/03/10 12:36:14;;;;;;;4.95;3.78;;;;;;;5.89;39.38;96437.78;6321483;28;20018;-68
2023/03/10 12:39:28;;;;;;;7.63;5.00;;;;;;;4.97;41.05;96432.91;6321245;28;20393;-67
2023/03/10 12:42:34;;;;;;;9.85;5.13;;;;;;;3.52;43.40;96432.75;6321070;28;20128;-68
2023/03/10 12:45:44;;;;;;;10.40;6.45;;;;;;;2.76;46.21;96426.44;6319800;28;20039;-68
2023/03/10 12:49:14;;;;;;;15.48;7.63;;;;;;;1.66;48.70;96419.44;6320148;28;20417;-68
2023/03/10 12:52:36;;;;;;;8.60;5.10;;;;;;;1.56;49.60;96421.56;6279852;28;20158;-67
2023/03/10 12:56:03;;;;;;;7.30;4.55;;;;;;;1.35;50.14;96422.31;6271258;28;20076;-68
2023/03/10 12:59:26;;;;;;;9.65;4.90;;;;;;;1.08;50.89;96414.63;6271509;28;20044;-68
2023/03/10 13:02:32;;;;;;;9.43;5.60;;;;;;;0.83;52.29;96412.00;6270075;28;20063;-68
2023/03/10 13:05:55;;;;;;;10.40;6.00;;;;;;;0.44;52.79;96415.00;6286167;28;20430;-69
2023/03/10 13:09:22;;;;;;;9.25;6.13;;;;;;;0.00;54.62;96416.44;6270970;28;20048;-69
2023/03/10 13:12:35;;;;;;;9.77;6.28;;;;;;;-0.33;56.14;96413.09;6271170;28;20055;-68
2023/03/10 13:15:40;;;;;;;10.13;5.30;;;;;;;-0.65;56.81;96403.66;6270749;28;20048;-68
2023/03/10 13:18:52;;;;;;;8.75;5.47;;;;;;;-0.85;57.73;96404.22;6270758;28;20044;-68
2023/03/10 13:21:58;;;;;;;6.05;3.95;;;;;;;-0.79;57.79;96398.88;6270842;28;20410;-68
2023/03/10 13:25:15;;;;;;;12.00;7.10;;;;;;;-1.06;58.26;96398.75;6285715;28;20057;-68
2023/03/10 13:28:18;;;;;;;8.43;5.30;;;;;;;-1.34;58.93;96390.03;6270306;28;20037;-68
2023/03/10 13:31:24;;;;;;;8.77;5.50;;;;;;;-1.20;59.43;96393.94;6270541;28;20041;-67
2023/03/10 13:34:28;;;;;;;11.65;6.53;;;;;;;-1.29;59.50;96403.69;6270568;28;20036;-68
2023/03/10 13:37:32;;;;;;;7.57;4.65;;;;;;;-1.53;60.04;96403.38;6270419;28;20396;-68
2023/03/10 13:40:41;;;;;;;10.50;5.97;;;;;;;-1.42;60.08;96403.97;6269854;28;20077;-67
2023/03/10 13:43:47;;;;;;;9.35;6.20;;;;;;;-1.37;60.39;96412.44;6270328;28;20052;-67
2023/03/10 13:46:54;;;;;;;9.20;4.97;;;;;;;-1.41;60.27;96400.53;6270619;28;20048;-68
2023/03/10 13:50:00;;;;;;;11.07;6.00;;;;;;;-1.27;60.39;96401.91;6270288;28;20533;-67
2023/03/10 13:53:03;;;;;;;;;;;;;;;-1.08;59.64;96413.44;6277772;28;20774;-67
2023/03/10 13:56:20;;;;;;;10.98;6.15;;;;;;;-1.41;60.14;96416.00;6320056;28;19920;-68
2023/03/10 13:59:26;;;;;;;7.20;4.78;;;;;;;-1.24;59.98;96412.16;6319648;28;20313;-68
2023/03/10 14:02:35;;;;;;;9.32;5.32;;;;;;;-1.44;60.62;96405.75;6319443;28;20048;-69
2023/03/10 14:05:44;;;;;;;11.35;5.70;;;;;;;-1.42;61.10;96400.53;6319553;28;20067;-68
2023/03/10 14:08:47;;;;;;;7.32;2.92;;;;;;;-1.37;61.05;96396.97;6318062;28;20067;-67
2023/03/10 14:11:53;;;;;;;;;;;;;;;-1.39;60.69;96393.59;6320187;28;20047;-68
2023/03/10 14:15:13;;;;;;;7.25;4.55;;;;;;;-1.52;61.42;96402.53;6318039;28;19927;-69
2023/03/10 14:18:18;;;;;;;8.40;4.85;;;;;;;-1.67;62.10;96402.88;6319534;28;20306;-68
2023/03/10 14:21:31;;;;;;;11.02;6.43;;;;;;;-1.62;62.72;96411.38;6319170;28;20426;-68
2023/03/10 14:24:35;;;;;;;11.57;5.90;;;;;;;-1.84;62.78;96406.72;6319459;28;20035;-67
2023/03/10 14:27:47;;;;;;;6.90;3.65;;;;;;;-1.55;62.48;96402.59;6319510;28;20036;-68
2023/03/10 14:30:51;;;;;;;5.63;3.60;;;;;;;-1.64;62.93;96418.31;6319277;28;20039;-67
2023/03/10 14:33:52;;;;;;;10.10;5.28;;;;;;;-1.81;63.55;96416.97;6318870;28;20036;-67
2023/03/10 14:36:56;;;;;;;6.40;4.70;;;;;;;-1.66;62.95;96430.38;6318649;28;20051;-68
2023/03/10 14:40:02;;;;;;;9.48;5.72;;;;;;;-1.69;63.77;96430.47;6319149;28;20040;-67
2023/03/10 14:43:05;;;;;;;5.72;3.28;;;;;;;-1.44;63.55;96416.09;6318458;28;20221;-68
2023/03/10 14:46:11;;;;;;;10.20;5.97;;;;;;;-1.50;62.97;96418.81;6319151;28;20036;-68